Astolfo Dutra, Brazil
Current Conditions -  °F | °C
As of 8:00 PM on Tuesday 21 Oct 2014 (Local Time) from SBBQ Reporting Station
Haze Haze  
Wind Chill: 57°   Ceiling: 400
Heat Index: 57°   Visibility: 0.93mi
Dew Point: 55°   Wind: 8mph
Humidity: 94%   Direction: 130°SE
Pressure: 30.21"   Gusts: NA
Location:  21.32°S, 42.86°W
Report Text: SBBQ 212200Z 13007KT 1500 BR OVC004 14/13 Q1023
Loading
Personal Weather Stations






























Interactive Weather Map
Tropical Storm Tracking
New forecast layout! Learn more

10-Day Weather Forecast

Advertisements
Track Severe Weather on mobile